Terminal Aerodrome Forecast
Issued by NWS Cleveland, OH

Home | Current Version | Previous Version | Graphics & Text | Print | Product List | Glossary On
Versions: 1 2 3 4 5 6 7 8 9 10 11 12 13 14 15 16 17
000
FTUS41 KCLE 250925 AAA
TAFERI
TAF AMD
KERI 250925Z 2509/2606 24012KT P6SM -RA SCT045 OVC080
      TEMPO 2509/2512 19012KT 5SM -RA BKN025
     FM251200 24010KT P6SM VCSH BKN025
     FM251400 24012G20KT P6SM SCT010 BKN040
     FM251800 25015G25KT P6SM BKN025
     FM252200 25018G25KT 6SM -SHSN BKN010=

USA.gov is the U.S. government's official web portal to all federal, state and local government web resources and services.